createdAt,value
2018-12-14T00:00:36.627Z,1.1
2018-12-14T00:01:38.013Z,1.1
2018-12-14T00:02:39.558Z,1.1
2018-12-14T00:03:40.973Z,1.0
2018-12-14T00:04:42.418Z,1.1
2018-12-14T00:05:43.879Z,1.1
2018-12-14T00:06:45.274Z,1.0
2018-12-14T00:07:46.761Z,1.1
2018-12-14T00:08:48.295Z,1.1
2018-12-14T00:09:49.678Z,1.0
2018-12-14T00:10:51.282Z,1.0
2018-12-14T00:11:52.679Z,1.0
2018-12-14T00:12:54.165Z,1.0
2018-12-14T00:13:55.561Z,0.9
2018-12-14T00:14:56.949Z,1.0
2018-12-14T00:15:58.488Z,0.8
2018-12-14T00:16:59.878Z,0.8
2018-12-14T00:18:01.277Z,0.9
2018-12-14T00:19:02.822Z,0.9
2018-12-14T00:20:04.224Z,1.0
2018-12-14T00:21:05.705Z,1.0
2018-12-14T00:22:07.097Z,0.9
2018-12-14T00:23:08.572Z,0.8
2018-12-14T00:24:09.968Z,0.8
2018-12-14T00:25:11.364Z,0.8
2018-12-14T00:26:12.892Z,0.8
2018-12-14T00:27:14.290Z,0.9
2018-12-14T00:28:15.702Z,0.9
2018-12-14T00:29:17.218Z,0.8
2018-12-14T00:30:18.665Z,0.9
2018-12-14T00:31:20.097Z,0.8
2018-12-14T00:32:21.494Z,0.9
2018-12-14T00:33:22.976Z,0.9
2018-12-14T00:34:26.355Z,0.9
2018-12-14T00:35:27.750Z,0.9
2018-12-14T00:36:29.341Z,0.9
2018-12-14T00:37:30.734Z,0.9
2018-12-14T00:38:32.185Z,0.9
2018-12-14T00:39:33.667Z,0.8
2018-12-14T00:40:35.069Z,0.8
2018-12-14T00:41:36.468Z,0.9
2018-12-14T00:42:37.984Z,0.8
2018-12-14T00:43:39.375Z,0.8
2018-12-14T00:44:40.769Z,0.8
2018-12-14T00:45:42.358Z,0.8
2018-12-14T00:46:43.769Z,0.9
2018-12-14T00:47:45.192Z,0.8
2018-12-14T00:48:46.637Z,0.9
2018-12-14T00:49:48.029Z,1.0
2018-12-14T00:50:49.564Z,1.0
2018-12-14T00:51:50.954Z,1.0
2018-12-14T00:52:52.346Z,1.0
2018-12-14T00:53:54.243Z,1.0
2018-12-14T00:54:55.594Z,1.0
2018-12-14T00:55:56.999Z,1.0
2018-12-14T00:56:58.569Z,1.1
2018-12-14T00:57:59.956Z,1.1
2018-12-14T00:59:01.444Z,1.2
2018-12-14T01:00:02.876Z,1.2
2018-12-14T01:01:04.336Z,1.4
2018-12-14T01:02:05.727Z,1.4
2018-12-14T01:03:07.206Z,1.4
2018-12-14T01:04:08.631Z,1.4
2018-12-14T01:05:09.995Z,1.4
2018-12-14T01:06:11.526Z,1.4
2018-12-14T01:07:12.916Z,1.4
2018-12-14T01:08:14.308Z,1.5
2018-12-14T01:09:15.869Z,1.5
2018-12-14T01:10:17.265Z,1.4
2018-12-14T01:11:18.661Z,1.4
2018-12-14T01:12:20.988Z,1.6
2018-12-14T01:13:22.800Z,1.6
2018-12-14T01:14:24.282Z,1.5
2018-12-14T01:15:25.690Z,1.5
2018-12-14T01:16:27.162Z,1.6
2018-12-14T01:17:28.556Z,1.6
2018-12-14T01:18:30.040Z,1.5
2018-12-14T01:19:31.430Z,1.5
2018-12-14T01:20:32.830Z,1.6
2018-12-14T01:21:34.365Z,1.6
2018-12-14T01:22:35.759Z,1.5
2018-12-14T01:23:37.177Z,1.5
2018-12-14T01:24:38.693Z,1.5
2018-12-14T01:25:40.089Z,1.6
2018-12-14T01:26:41.583Z,1.6
2018-12-14T01:27:42.976Z,1.6
2018-12-14T01:28:44.453Z,1.5
2018-12-14T01:29:45.845Z,1.5
2018-12-14T01:30:47.236Z,1.6
2018-12-14T01:31:48.627Z,1.6
2018-12-14T01:32:50.025Z,1.6
2018-12-14T01:33:51.470Z,1.6
2018-12-14T01:34:52.884Z,1.6
2018-12-14T01:35:54.278Z,1.5
2018-12-14T01:36:55.777Z,1.5
2018-12-14T01:37:57.164Z,1.6
2018-12-14T01:38:58.569Z,1.5
2018-12-14T01:40:00.086Z,1.5
2018-12-14T01:41:01.487Z,1.5
2018-12-14T01:42:05.026Z,1.5
2018-12-14T01:43:04.410Z,1.4
2018-12-14T01:44:05.911Z,1.4
2018-12-14T01:45:07.253Z,1.5
2018-12-14T01:46:08.661Z,1.4
2018-12-14T01:47:10.170Z,1.5
2018-12-14T01:48:11.575Z,1.5
2018-12-14T01:49:12.949Z,1.5
2018-12-14T01:50:14.492Z,1.5
2018-12-14T01:51:15.887Z,1.5
2018-12-14T01:52:17.273Z,1.6
2018-12-14T01:53:18.812Z,1.6
2018-12-14T01:54:20.210Z,1.6
2018-12-14T01:55:21.653Z,1.6
2018-12-14T01:56:23.136Z,1.7
2018-12-14T01:57:24.527Z,1.7
2018-12-14T01:58:25.918Z,1.6
2018-12-14T01:59:27.454Z,1.7
2018-12-14T02:00:28.844Z,1.7
2018-12-14T02:01:30.237Z,1.7
2018-12-14T02:02:31.778Z,1.8
2018-12-14T02:03:33.216Z,1.7
2018-12-14T02:04:34.884Z,1.8
2018-12-14T02:05:36.202Z,1.8
2018-12-14T02:06:37.593Z,1.8
2018-12-14T02:07:39.183Z,1.8
2018-12-14T02:08:40.624Z,1.8
2018-12-14T02:09:42.013Z,1.8
2018-12-14T02:10:43.504Z,1.8
2018-12-14T02:11:44.896Z,1.8
2018-12-14T02:12:46.283Z,1.9
2018-12-14T02:13:47.848Z,1.8
2018-12-14T02:14:49.266Z,1.8
2018-12-14T02:15:50.662Z,1.9
2018-12-14T02:16:52.148Z,1.9
2018-12-14T02:17:53.542Z,1.9
2018-12-14T02:18:55.028Z,1.9
2018-12-14T02:19:56.471Z,1.9
2018-12-14T02:20:57.861Z,1.9
2018-12-14T02:21:59.351Z,1.9
2018-12-14T02:23:00.747Z,1.9
2018-12-14T02:24:02.231Z,1.9
2018-12-14T02:25:03.621Z,1.9
2018-12-14T02:26:05.114Z,1.9
2018-12-14T02:27:06.500Z,1.9
2018-12-14T02:28:07.996Z,2.0
2018-12-14T02:29:09.386Z,1.9
2018-12-14T02:30:10.782Z,2.0
2018-12-14T02:31:12.315Z,1.9
2018-12-14T02:32:13.703Z,2.0
2018-12-14T02:33:15.099Z,2.0
2018-12-14T02:34:16.640Z,2.0
2018-12-14T02:35:18.027Z,1.9
2018-12-14T02:36:19.421Z,1.9
2018-12-14T02:37:20.960Z,1.9
2018-12-14T02:38:22.353Z,1.9
2018-12-14T02:39:23.842Z,1.9
2018-12-14T02:40:25.234Z,1.8
2018-12-14T02:41:26.732Z,1.8
2018-12-14T02:42:28.115Z,1.8
2018-12-14T02:43:29.597Z,1.8
2018-12-14T02:44:30.997Z,1.8
2018-12-14T02:45:32.512Z,1.7
2018-12-14T02:46:34.023Z,1.6
2018-12-14T02:47:35.418Z,1.6
2018-12-14T02:48:36.811Z,1.5
2018-12-14T02:49:39.824Z,1.5
2018-12-14T02:50:39.696Z,1.5
2018-12-14T02:51:41.092Z,1.5
2018-12-14T02:52:42.627Z,1.5
2018-12-14T02:53:44.011Z,1.7
2018-12-14T02:54:45.407Z,1.7
2018-12-14T02:55:46.918Z,1.6
2018-12-14T02:56:48.310Z,1.6
2018-12-14T02:57:49.886Z,1.6
2018-12-14T02:58:51.277Z,1.7
2018-12-14T02:59:52.872Z,1.7
2018-12-14T03:00:54.266Z,1.7
2018-12-14T03:01:55.739Z,1.6
2018-12-14T03:02:57.128Z,1.7
2018-12-14T03:03:58.611Z,1.7
2018-12-14T03:05:00.006Z,1.6
2018-12-14T03:06:01.500Z,1.6
2018-12-14T03:07:02.886Z,1.7
2018-12-14T03:08:04.477Z,1.7
2018-12-14T03:09:05.865Z,1.6
2018-12-14T03:10:07.460Z,1.6
2018-12-14T03:11:08.863Z,1.6
2018-12-14T03:12:10.342Z,1.6
2018-12-14T03:13:11.737Z,1.5
2018-12-14T03:14:13.224Z,1.6
2018-12-14T03:15:14.615Z,1.5
2018-12-14T03:16:16.006Z,1.4
2018-12-14T03:17:17.550Z,1.4
2018-12-14T03:18:18.947Z,1.4
2018-12-14T03:19:20.339Z,1.4
2018-12-14T03:20:21.893Z,1.5
2018-12-14T03:21:23.284Z,1.5
2018-12-14T03:22:24.745Z,1.5
2018-12-14T03:23:26.140Z,1.5
2018-12-14T03:24:28.030Z,1.5
2018-12-14T03:25:29.419Z,1.5
2018-12-14T03:26:30.915Z,1.5
2018-12-14T03:27:32.312Z,1.6
2018-12-14T03:28:33.797Z,1.6
2018-12-14T03:29:35.186Z,1.6
2018-12-14T03:30:36.681Z,1.6
2018-12-14T03:31:38.102Z,1.6
2018-12-14T03:32:39.510Z,1.6
2018-12-14T03:33:41.001Z,1.7
2018-12-14T03:34:42.395Z,1.7
2018-12-14T03:35:43.793Z,1.6
2018-12-14T03:36:45.189Z,1.7
2018-12-14T03:37:46.862Z,1.6
2018-12-14T03:38:48.287Z,1.7
2018-12-14T03:39:49.652Z,1.6
2018-12-14T03:40:51.944Z,1.7
2018-12-14T03:41:53.342Z,1.7
2018-12-14T03:42:54.730Z,1.6
2018-12-14T03:43:56.329Z,1.6
2018-12-14T03:44:57.726Z,1.7
2018-12-14T03:45:59.119Z,1.8
2018-12-14T03:47:00.658Z,1.8
2018-12-14T03:48:02.043Z,1.7
2018-12-14T03:49:03.447Z,1.7
2018-12-14T03:50:04.974Z,1.7
2018-12-14T03:51:06.363Z,1.8
2018-12-14T03:52:07.760Z,1.8
2018-12-14T03:53:09.293Z,1.8
2018-12-14T03:54:10.688Z,1.8
2018-12-14T03:55:12.081Z,1.8
2018-12-14T03:56:13.615Z,1.8
2018-12-14T03:57:15.012Z,1.8
2018-12-14T03:58:16.403Z,1.8
2018-12-14T03:59:17.938Z,1.8
2018-12-14T04:00:19.457Z,1.8
2018-12-14T04:01:20.834Z,1.7
2018-12-14T04:02:22.474Z,1.8
2018-12-14T04:03:23.872Z,1.8
2018-12-14T04:04:25.553Z,1.8
2018-12-14T04:05:26.941Z,1.8
2018-12-14T04:06:28.632Z,1.9
2018-12-14T04:07:30.023Z,1.8
2018-12-14T04:08:31.716Z,1.9
2018-12-14T04:09:33.116Z,1.9
2018-12-14T04:10:34.802Z,1.9
2018-12-14T04:11:36.192Z,1.8
2018-12-14T04:12:41.633Z,1.8
2018-12-14T04:13:39.241Z,1.8
2018-12-14T04:14:40.772Z,1.8
2018-12-14T04:15:42.163Z,1.8
2018-12-14T04:16:43.858Z,1.8
2018-12-14T04:17:45.629Z,1.8
2018-12-14T04:18:47.153Z,1.8
2018-12-14T04:19:48.539Z,1.8
2018-12-14T04:20:50.233Z,1.7
2018-12-14T04:21:51.659Z,1.8
2018-12-14T04:22:53.316Z,1.8
2018-12-14T04:23:54.715Z,1.9
2018-12-14T04:24:56.406Z,1.8
2018-12-14T04:25:57.807Z,1.9
2018-12-14T04:26:59.488Z,1.9
2018-12-14T04:28:00.879Z,1.8
2018-12-14T04:29:02.582Z,1.8
2018-12-14T04:30:03.965Z,1.8
2018-12-14T04:31:05.661Z,1.8
2018-12-14T04:32:07.056Z,1.8
2018-12-14T04:33:08.745Z,1.9
2018-12-14T04:34:10.135Z,1.8
2018-12-14T04:35:11.833Z,1.8
2018-12-14T04:36:13.226Z,1.8
2018-12-14T04:37:14.917Z,1.8
2018-12-14T04:38:16.310Z,1.8
2018-12-14T04:39:18.001Z,1.8
2018-12-14T04:40:19.394Z,1.8
2018-12-14T04:41:21.094Z,1.9
2018-12-14T04:42:22.488Z,1.8
2018-12-14T04:43:24.575Z,1.8
2018-12-14T04:44:25.968Z,1.9
2018-12-14T04:45:27.669Z,1.9
2018-12-14T04:46:29.384Z,1.9
2018-12-14T04:47:30.775Z,1.9
2018-12-14T04:48:32.401Z,1.9
2018-12-14T04:49:33.793Z,1.9
2018-12-14T04:50:35.192Z,1.9
2018-12-14T04:51:36.721Z,1.9
2018-12-14T04:52:38.120Z,1.9
2018-12-14T04:53:39.804Z,1.9
2018-12-14T04:54:41.199Z,1.9
2018-12-14T04:55:42.891Z,1.9
2018-12-14T04:56:44.285Z,1.7
2018-12-14T04:57:45.685Z,1.8
2018-12-14T04:58:47.217Z,1.8
2018-12-14T04:59:48.609Z,1.8
2018-12-14T05:00:50.008Z,1.8
2018-12-14T05:01:51.574Z,1.8
2018-12-14T05:02:52.961Z,1.8
2018-12-14T05:03:54.350Z,1.8
2018-12-14T05:04:56.063Z,1.8
2018-12-14T05:05:57.456Z,1.8
2018-12-14T05:06:58.853Z,1.8
2018-12-14T05:08:00.385Z,1.8
2018-12-14T05:09:01.775Z,1.8
2018-12-14T05:10:03.168Z,1.9
2018-12-14T05:11:04.726Z,1.8
2018-12-14T05:12:06.117Z,1.8
2018-12-14T05:13:07.898Z,1.8
2018-12-14T05:14:09.440Z,1.8
2018-12-14T05:15:10.828Z,1.8
2018-12-14T05:16:12.214Z,1.8
2018-12-14T05:17:13.759Z,1.8
2018-12-14T05:18:15.150Z,1.9
2018-12-14T05:19:16.845Z,1.8
2018-12-14T05:20:18.237Z,1.8
2018-12-14T05:21:19.926Z,1.8
2018-12-14T05:22:21.322Z,1.8
2018-12-14T05:23:23.015Z,1.9
2018-12-14T05:24:24.406Z,1.9
2018-12-14T05:25:26.104Z,1.8
2018-12-14T05:26:28.956Z,1.8
2018-12-14T05:27:28.981Z,1.9
2018-12-14T05:28:30.375Z,1.8
2018-12-14T05:29:32.065Z,1.8
2018-12-14T05:30:33.524Z,1.8
2018-12-14T05:31:35.154Z,1.7
2018-12-14T05:32:36.542Z,1.8
2018-12-14T05:33:37.942Z,1.8
2018-12-14T05:34:39.754Z,1.8
2018-12-14T05:35:41.161Z,1.9
2018-12-14T05:36:42.553Z,1.9
2018-12-14T05:37:44.207Z,1.9
2018-12-14T05:38:45.600Z,1.8
2018-12-14T05:39:46.994Z,1.8
2018-12-14T05:40:48.525Z,1.9
2018-12-14T05:41:49.918Z,1.8
2018-12-14T05:42:51.310Z,1.8
2018-12-14T05:43:52.852Z,1.8
2018-12-14T05:44:54.245Z,1.9
2018-12-14T05:45:55.648Z,1.9
2018-12-14T05:46:57.167Z,1.9
2018-12-14T05:47:58.560Z,1.9
2018-12-14T05:48:59.954Z,2.0
2018-12-14T05:50:01.488Z,1.9
2018-12-14T05:51:02.886Z,2.0
2018-12-14T05:52:04.279Z,2.0
2018-12-14T05:53:05.816Z,2.0
2018-12-14T05:54:07.206Z,2.0
2018-12-14T05:55:08.798Z,2.0
2018-12-14T05:56:10.187Z,1.9
2018-12-14T05:57:11.778Z,2.1
2018-12-14T05:58:13.170Z,2.0
2018-12-14T05:59:14.562Z,2.0
2018-12-14T06:00:16.101Z,2.0
2018-12-14T06:01:17.487Z,2.0
2018-12-14T06:02:18.883Z,2.0
2018-12-14T06:03:20.421Z,2.0
2018-12-14T06:04:21.810Z,2.0
2018-12-14T06:05:23.508Z,2.1
2018-12-14T06:06:24.897Z,2.0
2018-12-14T06:07:26.594Z,2.0
2018-12-14T06:08:27.983Z,2.1
2018-12-14T06:09:29.378Z,2.1
2018-12-14T06:10:30.775Z,2.1
2018-12-14T06:11:32.356Z,2.0
2018-12-14T06:12:33.750Z,2.0
2018-12-14T06:13:35.515Z,2.1
2018-12-14T06:14:37.477Z,2.1
2018-12-14T06:15:38.865Z,2.1
2018-12-14T06:16:40.377Z,2.1
2018-12-14T06:17:41.768Z,2.0
2018-12-14T06:18:43.461Z,2.1
2018-12-14T06:19:44.856Z,2.1
2018-12-14T06:20:46.550Z,2.0
2018-12-14T06:21:48.019Z,2.1
2018-12-14T06:22:49.637Z,2.1
2018-12-14T06:23:51.032Z,2.1
2018-12-14T06:24:52.719Z,2.1
2018-12-14T06:25:54.113Z,2.1
2018-12-14T06:26:55.813Z,2.1
2018-12-14T06:27:57.199Z,2.1
2018-12-14T06:28:58.888Z,2.1
2018-12-14T06:30:00.292Z,2.1
2018-12-14T06:31:01.978Z,2.1
2018-12-14T06:32:03.371Z,2.1
2018-12-14T06:33:04.768Z,2.1
2018-12-14T06:34:06.300Z,2.1
2018-12-14T06:35:07.693Z,2.2
2018-12-14T06:36:09.080Z,2.1
2018-12-14T06:37:10.622Z,2.2
2018-12-14T06:38:12.009Z,2.1
2018-12-14T06:39:13.403Z,2.2
2018-12-14T06:40:14.944Z,2.2
2018-12-14T06:41:16.340Z,2.1
2018-12-14T06:42:18.028Z,2.1
2018-12-14T06:43:19.418Z,2.2
2018-12-14T06:44:20.808Z,2.1
2018-12-14T06:45:22.350Z,2.2
2018-12-14T06:46:23.737Z,2.1
2018-12-14T06:47:25.129Z,2.1
2018-12-14T06:48:26.669Z,2.2
2018-12-14T06:49:28.424Z,2.2
2018-12-14T06:50:29.830Z,2.3
2018-12-14T06:51:31.400Z,2.1
2018-12-14T06:52:32.832Z,2.2
2018-12-14T06:53:34.188Z,2.2
2018-12-14T06:54:35.726Z,2.3
2018-12-14T06:55:37.117Z,2.2
2018-12-14T06:56:38.505Z,2.2
2018-12-14T06:57:40.044Z,2.2
2018-12-14T06:58:41.431Z,2.2
2018-12-14T06:59:42.828Z,2.3
2018-12-14T07:00:44.365Z,2.3
2018-12-14T07:01:45.763Z,2.3
2018-12-14T07:02:47.147Z,2.3
2018-12-14T07:03:49.085Z,2.2
2018-12-14T07:04:50.483Z,2.3
2018-12-14T07:05:52.181Z,2.2
2018-12-14T07:06:53.574Z,2.3
2018-12-14T07:07:55.272Z,2.2
2018-12-14T07:08:56.667Z,2.2
2018-12-14T07:09:58.054Z,2.3
2018-12-14T07:10:59.598Z,2.2
2018-12-14T07:12:00.980Z,2.3
2018-12-14T07:13:02.374Z,2.2
2018-12-14T07:14:03.910Z,2.3
2018-12-14T07:15:05.297Z,2.3
2018-12-14T07:16:07.008Z,2.3
2018-12-14T07:17:08.394Z,2.3
2018-12-14T07:18:10.188Z,2.3
2018-12-14T07:19:11.633Z,2.3
2018-12-14T07:20:13.027Z,2.4
2018-12-14T07:21:14.605Z,2.2
2018-12-14T07:22:15.997Z,2.3
2018-12-14T07:23:17.412Z,2.3
2018-12-14T07:24:18.927Z,2.3
2018-12-14T07:25:20.319Z,2.2
2018-12-14T07:26:22.016Z,2.3
2018-12-14T07:27:23.406Z,2.3
2018-12-14T07:28:25.099Z,2.3
2018-12-14T07:29:26.499Z,2.3
2018-12-14T07:30:28.187Z,2.3
2018-12-14T07:31:29.586Z,2.3
2018-12-14T07:32:31.271Z,2.4
2018-12-14T07:33:32.667Z,2.2
2018-12-14T07:34:34.729Z,2.3
2018-12-14T07:35:41.678Z,2.3
2018-12-14T07:36:37.650Z,2.3
2018-12-14T07:37:39.043Z,2.3
2018-12-14T07:38:40.732Z,2.3
2018-12-14T07:39:42.123Z,2.4
2018-12-14T07:40:43.836Z,2.4
2018-12-14T07:41:45.231Z,2.3
2018-12-14T07:42:46.904Z,2.4
2018-12-14T07:43:48.293Z,2.4
2018-12-14T07:44:49.797Z,2.3
2018-12-14T07:45:51.827Z,2.4
2018-12-14T07:46:53.217Z,2.4
2018-12-14T07:47:54.609Z,2.4
2018-12-14T07:48:56.165Z,2.4
2018-12-14T07:49:57.552Z,2.3
2018-12-14T07:50:58.945Z,2.3
2018-12-14T07:52:00.500Z,2.4
2018-12-14T07:53:01.871Z,2.4
2018-12-14T07:54:03.265Z,2.4
2018-12-14T07:55:04.805Z,2.5
2018-12-14T07:56:06.209Z,2.5
2018-12-14T07:57:07.602Z,2.5
2018-12-14T07:58:09.129Z,2.4
2018-12-14T07:59:10.516Z,2.4
2018-12-14T08:00:11.912Z,2.5
2018-12-14T08:01:13.442Z,2.4
2018-12-14T08:02:14.834Z,2.5
2018-12-14T08:03:16.229Z,2.4
2018-12-14T08:04:17.770Z,2.5
2018-12-14T08:05:19.162Z,2.3
2018-12-14T08:06:20.855Z,2.4
2018-12-14T08:07:22.248Z,2.4
2018-12-14T08:08:23.730Z,2.4
2018-12-14T08:09:25.126Z,2.5
2018-12-14T08:10:26.620Z,2.5
2018-12-14T08:11:28.009Z,2.5
2018-12-14T08:12:29.502Z,2.6
2018-12-14T08:13:34.758Z,2.5
2018-12-14T08:14:32.422Z,2.5
2018-12-14T08:15:33.773Z,2.5
2018-12-14T08:16:35.469Z,2.5
2018-12-14T08:17:36.859Z,2.5
2018-12-14T08:18:38.552Z,2.6
2018-12-14T08:19:39.947Z,2.6
2018-12-14T08:20:41.709Z,2.5
2018-12-14T08:21:43.104Z,2.6
2018-12-14T08:22:44.725Z,2.6
2018-12-14T08:23:46.118Z,2.6
2018-12-14T08:24:47.805Z,2.6
2018-12-14T08:25:49.199Z,2.6
2018-12-14T08:26:50.896Z,2.7
2018-12-14T08:27:52.371Z,2.6
2018-12-14T08:28:53.981Z,2.6
2018-12-14T08:29:55.371Z,2.7
2018-12-14T08:30:56.762Z,2.6
2018-12-14T08:31:58.289Z,2.7
2018-12-14T08:32:59.699Z,2.7
2018-12-14T08:34:01.093Z,2.6
2018-12-14T08:35:02.631Z,2.7
2018-12-14T08:36:04.028Z,2.7
2018-12-14T08:37:05.433Z,2.7
2018-12-14T08:38:07.007Z,2.6
2018-12-14T08:39:08.410Z,2.7
2018-12-14T08:40:09.801Z,2.7
2018-12-14T08:41:11.468Z,2.7
2018-12-14T08:42:12.866Z,2.8
2018-12-14T08:43:14.553Z,2.7
2018-12-14T08:44:15.947Z,2.8
2018-12-14T08:45:17.639Z,2.8
2018-12-14T08:46:19.080Z,2.8
2018-12-14T08:47:20.726Z,2.8
2018-12-14T08:48:22.126Z,2.8
2018-12-14T08:49:23.809Z,2.8
2018-12-14T08:50:25.208Z,2.8
2018-12-14T08:51:26.604Z,2.9
2018-12-14T08:52:28.133Z,2.9
2018-12-14T08:53:29.529Z,2.8
2018-12-14T08:54:31.217Z,2.9
2018-12-14T08:55:32.613Z,2.8
2018-12-14T08:56:34.384Z,2.8
2018-12-14T08:57:35.785Z,2.9
2018-12-14T08:58:37.401Z,2.8
2018-12-14T08:59:38.909Z,2.9
2018-12-14T09:00:40.306Z,3.0
2018-12-14T09:01:41.916Z,3.0
2018-12-14T09:02:43.307Z,3.0
2018-12-14T09:03:44.727Z,3.0
2018-12-14T09:04:46.235Z,3.0
2018-12-14T09:05:47.630Z,3.0
2018-12-14T09:06:49.323Z,3.1
2018-12-14T09:07:50.717Z,3.1
2018-12-14T09:08:52.408Z,3.0
2018-12-14T09:09:53.833Z,3.0
2018-12-14T09:10:55.232Z,3.1
2018-12-14T09:11:56.746Z,3.1
2018-12-14T09:12:58.140Z,3.1
2018-12-14T09:13:59.567Z,3.2
2018-12-14T09:15:01.258Z,3.1
2018-12-14T09:16:02.650Z,3.1
2018-12-14T09:17:04.372Z,3.1
2018-12-14T09:18:05.976Z,3.2
2018-12-14T09:19:07.632Z,3.2
2018-12-14T09:20:09.019Z,3.2
2018-12-14T09:21:10.430Z,3.3
2018-12-14T09:22:11.956Z,3.2
2018-12-14T09:23:13.353Z,3.2
2018-12-14T09:24:14.743Z,3.2
2018-12-14T09:25:16.275Z,3.1
2018-12-14T09:26:17.673Z,3.3
2018-12-14T09:27:19.450Z,3.2
2018-12-14T09:28:21.008Z,3.2
2018-12-14T09:29:23.336Z,3.2
2018-12-14T09:30:23.835Z,3.3
2018-12-14T09:31:25.239Z,3.3
2018-12-14T09:32:26.767Z,3.3
2018-12-14T09:33:28.166Z,3.3
2018-12-14T09:34:29.563Z,3.3
2018-12-14T09:35:31.115Z,3.4
2018-12-14T09:36:32.510Z,3.4
2018-12-14T09:37:33.916Z,3.4
2018-12-14T09:38:35.410Z,3.4
2018-12-14T09:39:36.809Z,3.3
2018-12-14T09:40:38.205Z,3.4
2018-12-14T09:41:39.734Z,3.4
2018-12-14T09:42:41.131Z,3.4
2018-12-14T09:43:42.820Z,3.5
2018-12-14T09:44:44.216Z,3.4
2018-12-14T09:45:45.901Z,3.4
2018-12-14T09:46:47.301Z,3.3
2018-12-14T09:47:48.992Z,3.4
2018-12-14T09:48:50.445Z,3.5
2018-12-14T09:49:52.074Z,3.5
2018-12-14T09:50:53.465Z,3.5
2018-12-14T09:51:55.160Z,3.5
2018-12-14T09:52:56.556Z,3.5
2018-12-14T09:53:58.275Z,3.6
2018-12-14T09:54:59.643Z,3.6
2018-12-14T09:56:01.070Z,3.6
2018-12-14T09:57:02.567Z,3.5
2018-12-14T09:58:03.964Z,3.5
2018-12-14T09:59:05.361Z,3.5
2018-12-14T10:00:06.887Z,3.5
2018-12-14T10:01:08.287Z,3.5
2018-12-14T10:02:09.685Z,3.5
2018-12-14T10:03:11.085Z,3.6
2018-12-14T10:04:12.489Z,3.4
2018-12-14T10:05:13.885Z,3.4
2018-12-14T10:06:15.832Z,3.4
2018-12-14T10:07:16.648Z,3.4
2018-12-14T10:08:18.050Z,3.4
2018-12-14T10:09:19.450Z,3.4
2018-12-14T10:10:20.849Z,3.4
2018-12-14T10:11:22.528Z,3.4
2018-12-14T10:12:23.926Z,3.5
2018-12-14T10:13:25.327Z,3.5
2018-12-14T10:14:26.849Z,3.5
2018-12-14T10:15:28.321Z,3.6
2018-12-14T10:16:29.727Z,3.6
2018-12-14T10:17:31.375Z,3.6
2018-12-14T10:18:32.782Z,3.6
2018-12-14T10:19:34.468Z,3.7
2018-12-14T10:20:35.867Z,3.6
2018-12-14T10:21:37.263Z,3.6
2018-12-14T10:22:41.558Z,3.6
2018-12-14T10:23:40.144Z,3.6
2018-12-14T10:24:41.541Z,3.7
2018-12-14T10:25:43.105Z,3.6
2018-12-14T10:26:44.497Z,3.6
2018-12-14T10:27:45.984Z,3.7
2018-12-14T10:28:47.434Z,3.7
2018-12-14T10:29:49.138Z,3.8
2018-12-14T10:30:50.534Z,3.7
2018-12-14T10:31:52.157Z,3.8
2018-12-14T10:32:53.548Z,3.8
2018-12-14T10:33:55.037Z,3.7
2018-12-14T10:34:56.435Z,3.8
2018-12-14T10:35:58.021Z,3.8
2018-12-14T10:36:59.417Z,3.7
2018-12-14T10:38:01.052Z,3.8
2018-12-14T10:39:02.448Z,3.8
2018-12-14T10:40:04.088Z,3.8
2018-12-14T10:41:05.483Z,3.8
2018-12-14T10:42:06.973Z,3.8
2018-12-14T10:43:08.364Z,3.8
2018-12-14T10:44:09.852Z,3.8
2018-12-14T10:45:11.248Z,3.7
2018-12-14T10:46:12.774Z,3.8
2018-12-14T10:47:14.175Z,3.8
2018-12-14T10:48:15.571Z,3.9
2018-12-14T10:49:17.258Z,3.9
2018-12-14T10:50:18.655Z,3.9
2018-12-14T10:51:20.056Z,3.9
2018-12-14T10:52:21.651Z,3.9
2018-12-14T10:53:22.975Z,3.9
2018-12-14T10:54:24.368Z,3.9
2018-12-14T10:55:25.900Z,3.9
2018-12-14T10:56:27.304Z,3.9
2018-12-14T10:57:28.703Z,3.9
2018-12-14T10:58:30.226Z,3.9
2018-12-14T10:59:31.619Z,3.8
2018-12-14T11:00:33.020Z,4.0
2018-12-14T11:01:34.416Z,4.0
2018-12-14T11:02:35.982Z,3.9
2018-12-14T11:03:37.382Z,4.0
2018-12-14T11:04:39.069Z,3.9
2018-12-14T11:05:40.577Z,3.9
2018-12-14T11:06:42.155Z,4.0
2018-12-14T11:07:43.576Z,3.9
2018-12-14T11:08:45.242Z,4.0
2018-12-14T11:09:46.636Z,3.9
2018-12-14T11:10:48.127Z,4.0
2018-12-14T11:11:49.525Z,4.0
2018-12-14T11:12:50.924Z,4.0
2018-12-14T11:13:52.441Z,3.9
2018-12-14T11:14:53.932Z,4.0
2018-12-14T11:15:55.329Z,3.9
2018-12-14T11:16:56.969Z,4.0
2018-12-14T11:17:58.369Z,3.9
2018-12-14T11:18:59.766Z,4.0
2018-12-14T11:20:01.296Z,3.9
2018-12-14T11:21:02.682Z,4.0
2018-12-14T11:22:04.081Z,4.0
2018-12-14T11:23:05.613Z,3.9
2018-12-14T11:24:07.011Z,3.9
2018-12-14T11:25:08.404Z,3.9
2018-12-14T11:26:10.016Z,3.9
2018-12-14T11:27:11.337Z,3.9
2018-12-14T11:28:12.733Z,3.9
2018-12-14T11:29:14.349Z,3.9
2018-12-14T11:30:15.744Z,3.9
2018-12-14T11:31:17.140Z,3.8
2018-12-14T11:32:18.782Z,3.8
2018-12-14T11:33:20.199Z,3.9
2018-12-14T11:34:21.664Z,3.9
2018-12-14T11:35:23.115Z,4.0
2018-12-14T11:36:24.748Z,3.9
2018-12-14T11:37:26.145Z,4.0
2018-12-14T11:38:27.628Z,4.0
2018-12-14T11:39:29.027Z,3.9
2018-12-14T11:40:30.507Z,4.0
2018-12-14T11:41:32.287Z,4.0
2018-12-14T11:42:33.840Z,4.0
2018-12-14T11:43:35.234Z,4.0
2018-12-14T11:44:36.884Z,4.0
2018-12-14T11:45:38.281Z,4.0
2018-12-14T11:46:39.772Z,4.0
2018-12-14T11:47:41.169Z,4.1
2018-12-14T11:48:42.570Z,4.1
2018-12-14T11:49:44.086Z,3.9
2018-12-14T11:50:45.484Z,4.0
2018-12-14T11:51:46.885Z,3.9
2018-12-14T11:52:48.409Z,4.0
2018-12-14T11:53:49.804Z,3.9
2018-12-14T11:54:51.290Z,4.0
2018-12-14T11:55:52.690Z,4.0
2018-12-14T11:56:54.168Z,4.0
2018-12-14T11:57:55.564Z,4.0
2018-12-14T11:58:57.058Z,4.0
2018-12-14T11:59:58.458Z,4.0
2018-12-14T12:01:00.139Z,4.0
2018-12-14T12:02:01.531Z,4.1
2018-12-14T12:03:02.930Z,4.0
2018-12-14T12:04:04.453Z,4.0
2018-12-14T12:05:05.852Z,4.0
2018-12-14T12:06:07.348Z,4.0
2018-12-14T12:07:08.739Z,4.0
2018-12-14T12:08:10.137Z,4.0
2018-12-14T12:09:11.657Z,4.0
2018-12-14T12:10:13.057Z,4.0
2018-12-14T12:11:14.457Z,4.1
2018-12-14T12:12:15.979Z,4.0
2018-12-14T12:13:17.378Z,4.0
2018-12-14T12:14:18.862Z,4.1
2018-12-14T12:15:20.257Z,4.0
2018-12-14T12:16:21.745Z,4.1
2018-12-14T12:17:23.145Z,4.1
2018-12-14T12:18:24.561Z,4.0
2018-12-14T12:19:25.944Z,4.1
2018-12-14T12:20:27.359Z,4.0
2018-12-14T12:21:28.944Z,4.0
2018-12-14T12:22:30.339Z,4.0
2018-12-14T12:23:31.738Z,4.0
2018-12-14T12:24:33.265Z,4.0
2018-12-14T12:25:34.670Z,4.0
2018-12-14T12:26:36.055Z,4.0
2018-12-14T12:27:37.598Z,4.0
2018-12-14T12:28:38.992Z,4.0
2018-12-14T12:29:40.472Z,4.0
2018-12-14T12:30:41.867Z,4.0
2018-12-14T12:31:43.268Z,4.0
2018-12-14T12:32:44.789Z,4.0
2018-12-14T12:33:46.181Z,4.0
2018-12-14T12:34:47.572Z,4.0
2018-12-14T12:35:49.111Z,4.0
2018-12-14T12:36:50.507Z,3.9
2018-12-14T12:37:51.905Z,4.0
2018-12-14T12:38:53.431Z,4.0
2018-12-14T12:39:54.833Z,4.0
2018-12-14T12:40:56.318Z,4.0
2018-12-14T12:41:57.716Z,3.9
2018-12-14T12:42:59.109Z,3.9
2018-12-14T12:44:00.633Z,4.0
2018-12-14T12:45:02.031Z,3.9
2018-12-14T12:46:03.422Z,3.9
2018-12-14T12:47:04.962Z,3.9
2018-12-14T12:48:06.361Z,3.9
2018-12-14T12:49:07.756Z,3.9
2018-12-14T12:50:09.288Z,3.9
2018-12-14T12:51:10.693Z,3.9
2018-12-14T12:52:12.089Z,3.8
2018-12-14T12:53:13.493Z,3.9
2018-12-14T12:54:14.895Z,3.8
2018-12-14T12:55:16.477Z,3.8
2018-12-14T12:56:17.871Z,3.8
2018-12-14T12:57:19.271Z,3.9
2018-12-14T12:58:20.802Z,4.0
2018-12-14T12:59:22.218Z,3.9
2018-12-14T13:00:23.616Z,3.8
2018-12-14T13:01:25.126Z,3.9
2018-12-14T13:02:26.521Z,3.8
2018-12-14T13:03:27.916Z,3.8
2018-12-14T13:04:29.447Z,3.8
2018-12-14T13:05:34.806Z,3.8
2018-12-14T13:06:32.322Z,3.8
2018-12-14T13:07:33.746Z,3.8
2018-12-14T13:08:35.459Z,3.7
2018-12-14T13:09:36.839Z,3.9
2018-12-14T13:10:38.503Z,3.9
2018-12-14T13:11:39.898Z,3.8
2018-12-14T13:12:41.605Z,3.9
2018-12-14T13:13:43.000Z,3.8
2018-12-14T13:14:44.409Z,3.9
2018-12-14T13:15:45.911Z,3.8
2018-12-14T13:16:47.303Z,3.8
2018-12-14T13:17:48.698Z,3.8
2018-12-14T13:18:50.227Z,3.7
2018-12-14T13:19:51.626Z,3.7
2018-12-14T13:20:53.110Z,3.7
2018-12-14T13:21:54.506Z,3.7
2018-12-14T13:22:55.987Z,3.7
2018-12-14T13:23:57.385Z,3.7
2018-12-14T13:24:58.868Z,3.7
2018-12-14T13:26:00.260Z,3.8
2018-12-14T13:27:01.752Z,3.7
2018-12-14T13:28:03.184Z,3.7
2018-12-14T13:29:04.542Z,3.7
2018-12-14T13:30:08.027Z,3.7
2018-12-14T13:31:09.681Z,3.7
2018-12-14T13:32:10.921Z,3.7
2018-12-14T13:33:12.327Z,3.6
2018-12-14T13:34:14.270Z,3.6
2018-12-14T13:35:15.679Z,3.6
2018-12-14T13:36:17.076Z,3.6
2018-12-14T13:37:18.615Z,3.7
2018-12-14T13:38:20.029Z,3.6
2018-12-14T13:39:21.430Z,3.6
2018-12-14T13:40:23.146Z,3.6
2018-12-14T13:41:24.538Z,3.6
2018-12-14T13:42:25.988Z,3.6
2018-12-14T13:43:27.465Z,3.6
2018-12-14T13:44:28.864Z,3.6
2018-12-14T13:45:30.246Z,3.7
2018-12-14T13:46:31.825Z,3.7
2018-12-14T13:47:33.171Z,3.6
2018-12-14T13:48:34.582Z,3.6
2018-12-14T13:49:36.108Z,3.6
2018-12-14T13:50:37.493Z,3.6
2018-12-14T13:51:38.981Z,3.5
2018-12-14T13:52:40.376Z,3.6
2018-12-14T13:53:41.863Z,3.5
2018-12-14T13:54:43.256Z,3.5
2018-12-14T13:55:44.743Z,3.5
2018-12-14T13:56:46.528Z,3.5
2018-12-14T13:57:48.038Z,3.6
2018-12-14T13:58:49.429Z,3.6
2018-12-14T13:59:50.826Z,3.6
2018-12-14T14:00:52.356Z,3.5
2018-12-14T14:01:53.747Z,3.6
2018-12-14T14:02:55.143Z,3.5
2018-12-14T14:03:56.677Z,3.5
2018-12-14T14:04:58.074Z,3.5
2018-12-14T14:05:59.482Z,3.6
2018-12-14T14:07:02.042Z,3.5